createdAt,value
2022-12-20T00:02:17.918Z,83.10
2022-12-20T00:04:47.523Z,83.00
2022-12-20T00:07:17.222Z,83.10
2022-12-20T00:09:49.565Z,83.10
2022-12-20T00:12:19.377Z,83.10
2022-12-20T00:14:49.022Z,83.10
2022-12-20T00:17:19.151Z,83.30
2022-12-20T00:19:49.909Z,83.30
2022-12-20T00:22:19.733Z,83.30
2022-12-20T00:24:49.557Z,83.40
2022-12-20T00:27:19.540Z,83.50
2022-12-20T00:29:49.430Z,83.40
2022-12-20T00:32:19.346Z,83.50
2022-12-20T00:34:49.193Z,83.20
2022-12-20T00:37:19.105Z,83.30
2022-12-20T00:39:49.191Z,83.20
2022-12-20T00:42:19.216Z,83.10
2022-12-20T00:44:49.041Z,83.30
2022-12-20T00:47:19.316Z,83.10
2022-12-20T00:49:49.383Z,83.00
2022-12-20T00:52:19.368Z,82.90
2022-12-20T00:54:49.291Z,82.80
2022-12-20T00:57:19.254Z,82.80
2022-12-20T00:59:49.137Z,82.70
2022-12-20T01:02:19.061Z,82.40
2022-12-20T01:04:50.601Z,82.40
2022-12-20T01:07:21.223Z,82.40
2022-12-20T01:09:50.940Z,82.50
2022-12-20T01:12:21.001Z,82.00
2022-12-20T01:14:50.543Z,82.20
2022-12-20T01:17:21.579Z,82.10
2022-12-20T01:19:51.181Z,81.90
2022-12-20T01:22:20.846Z,81.90
2022-12-20T01:24:50.515Z,81.70
2022-12-20T01:27:20.072Z,81.70
2022-12-20T01:29:49.702Z,81.60
2022-12-20T01:32:19.396Z,81.50
2022-12-20T01:34:49.295Z,81.40
2022-12-20T01:37:19.644Z,81.30
2022-12-20T01:39:49.200Z,81.10
2022-12-20T01:42:18.707Z,81.00
2022-12-20T01:44:57.532Z,80.70
2022-12-20T01:47:29.044Z,80.40
2022-12-20T01:50:02.079Z,80.10
2022-12-20T01:52:45.220Z,80.00
2022-12-20T01:55:28.726Z,79.80
2022-12-20T01:58:05.644Z,79.60
2022-12-20T02:00:35.533Z,79.30
2022-12-20T02:03:09.788Z,79.00
2022-12-20T02:05:42.695Z,78.70
2022-12-20T02:08:15.364Z,78.40
2022-12-20T02:11:24.115Z,78.10
2022-12-20T02:14:32.218Z,77.50
2022-12-20T02:17:21.010Z,77.10
2022-12-20T02:20:09.075Z,76.80
2022-12-20T02:23:13.470Z,76.50
2022-12-20T02:26:09.883Z,76.40
2022-12-20T02:29:08.737Z,76.50
2022-12-20T02:32:11.715Z,76.20
2022-12-20T02:34:43.664Z,75.90
2022-12-20T02:37:13.835Z,75.50
2022-12-20T02:39:46.545Z,75.40
2022-12-20T02:42:22.076Z,75.20
2022-12-20T02:45:19.868Z,74.90
2022-12-20T02:48:00.174Z,74.40
2022-12-20T02:50:37.947Z,74.00
2022-12-20T02:53:09.544Z,73.80
2022-12-20T02:55:54.867Z,73.70
2022-12-20T02:58:55.594Z,73.30
2022-12-20T03:01:35.536Z,73.00
2022-12-20T03:04:05.866Z,72.50
2022-12-20T03:06:35.691Z,72.40
2022-12-20T03:09:05.384Z,72.10
2022-12-20T03:11:35.531Z,71.60
2022-12-20T03:14:05.116Z,71.30
2022-12-20T03:16:34.835Z,71.30
2022-12-20T03:19:04.431Z,70.80
2022-12-20T03:21:34.269Z,70.50
2022-12-20T03:24:04.664Z,70.30
2022-12-20T03:26:34.541Z,70.10
2022-12-20T03:29:04.735Z,69.90
2022-12-20T03:31:35.167Z,69.40
2022-12-20T03:34:05.931Z,69.70
2022-12-20T03:36:36.301Z,69.80
2022-12-20T03:39:06.799Z,69.60
2022-12-20T03:41:36.863Z,69.40
2022-12-20T03:44:06.911Z,69.20
2022-12-20T03:46:36.838Z,69.00
2022-12-20T03:49:06.824Z,69.10
2022-12-20T03:51:36.751Z,68.50
2022-12-20T03:54:06.775Z,68.50
2022-12-20T03:56:36.726Z,68.40
2022-12-20T03:59:06.784Z,68.40
2022-12-20T04:01:38.394Z,68.30
2022-12-20T04:04:10.218Z,66.50
2022-12-20T04:06:40.093Z,67.00
2022-12-20T04:09:10.153Z,67.00
2022-12-20T04:11:41.145Z,67.10
2022-12-20T04:14:11.034Z,66.30
2022-12-20T04:16:41.223Z,65.80
2022-12-20T04:19:11.476Z,65.80
2022-12-20T04:21:41.792Z,65.60
2022-12-20T04:24:12.328Z,65.50
2022-12-20T04:26:42.362Z,65.20
2022-12-20T04:29:12.213Z,64.70
2022-12-20T04:31:42.791Z,64.60
2022-12-20T04:34:12.808Z,64.70
2022-12-20T04:36:42.761Z,64.40
2022-12-20T04:39:12.740Z,63.80
2022-12-20T04:41:42.576Z,63.30
2022-12-20T04:44:12.484Z,63.40
2022-12-20T04:46:42.606Z,62.90
2022-12-20T04:49:12.616Z,62.70
2022-12-20T04:51:42.560Z,62.90
2022-12-20T04:54:12.555Z,62.50
2022-12-20T04:56:42.423Z,62.50
2022-12-20T04:59:14.186Z,62.00
2022-12-20T05:01:44.397Z,61.70
2022-12-20T05:04:14.628Z,61.50
2022-12-20T05:06:44.643Z,61.30
2022-12-20T05:09:14.527Z,61.30
2022-12-20T05:11:44.457Z,60.50
2022-12-20T05:14:14.456Z,60.60
2022-12-20T05:16:44.506Z,60.00
2022-12-20T05:19:14.420Z,59.70
2022-12-20T05:22:03.976Z,59.80
2022-12-20T05:24:54.062Z,59.80
2022-12-20T05:27:23.970Z,59.60
2022-12-20T05:29:53.937Z,59.70
2022-12-20T05:32:23.788Z,59.90
2022-12-20T05:34:53.871Z,59.50
2022-12-20T05:37:23.815Z,59.00
2022-12-20T05:39:53.824Z,58.50
2022-12-20T05:42:23.846Z,58.30
2022-12-20T05:44:53.636Z,58.40
2022-12-20T05:47:23.527Z,58.50
2022-12-20T05:49:53.619Z,58.00
2022-12-20T05:52:23.646Z,57.90
2022-12-20T05:54:53.682Z,58.10
2022-12-20T05:57:23.586Z,57.70
2022-12-20T05:59:53.441Z,57.60
2022-12-20T06:02:23.591Z,57.60
2022-12-20T06:04:53.719Z,57.70
2022-12-20T06:07:25.438Z,57.90
2022-12-20T06:09:55.427Z,57.70
2022-12-20T06:12:25.769Z,57.30
2022-12-20T06:14:55.676Z,57.40
2022-12-20T06:17:25.763Z,57.30
2022-12-20T06:19:55.641Z,56.80
2022-12-20T06:22:25.833Z,56.70
2022-12-20T06:24:55.920Z,57.00
2022-12-20T06:27:25.610Z,56.90
2022-12-20T06:29:56.133Z,56.80
2022-12-20T06:32:25.767Z,56.80
2022-12-20T06:34:55.448Z,56.60
2022-12-20T06:37:25.165Z,56.50
2022-12-20T06:39:54.874Z,56.40
2022-12-20T06:42:24.500Z,56.50
2022-12-20T06:44:54.132Z,56.30
2022-12-20T06:47:23.897Z,56.20
2022-12-20T06:49:53.552Z,56.00
2022-12-20T06:52:23.203Z,56.00
2022-12-20T06:54:52.863Z,56.00
2022-12-20T06:57:22.574Z,56.10
2022-12-20T06:59:52.169Z,56.00
2022-12-20T07:02:22.052Z,55.90
2022-12-20T07:04:52.749Z,55.90
2022-12-20T07:07:22.364Z,55.90
2022-12-20T07:09:52.095Z,55.60
2022-12-20T07:12:22.189Z,55.30
2022-12-20T07:14:52.281Z,55.30
2022-12-20T07:17:22.000Z,55.30
2022-12-20T07:19:51.618Z,55.20
2022-12-20T07:22:21.310Z,55.20
2022-12-20T07:24:52.085Z,55.10
2022-12-20T07:27:22.467Z,54.90
2022-12-20T07:29:52.881Z,54.70
2022-12-20T07:32:22.899Z,55.00
2022-12-20T07:34:52.893Z,55.10
2022-12-20T07:37:22.849Z,55.00
2022-12-20T07:39:52.842Z,53.50
2022-12-20T07:42:22.817Z,54.10
2022-12-20T07:44:52.798Z,54.60
2022-12-20T07:47:23.012Z,54.20
2022-12-20T07:49:52.976Z,54.40
2022-12-20T07:52:26.153Z,54.20
2022-12-20T07:55:04.522Z,54.20
2022-12-20T07:57:43.673Z,54.20
2022-12-20T08:00:14.758Z,54.30
2022-12-20T08:02:51.336Z,54.30
2022-12-20T08:05:21.514Z,54.30
2022-12-20T08:07:56.947Z,54.60
2022-12-20T08:10:30.406Z,54.50
2022-12-20T08:13:01.588Z,54.20
2022-12-20T08:15:31.898Z,53.60
2022-12-20T08:18:01.896Z,53.70
2022-12-20T08:20:31.997Z,53.80
2022-12-20T08:23:01.930Z,53.80
2022-12-20T08:25:37.338Z,53.80
2022-12-20T08:28:11.697Z,53.70
2022-12-20T08:30:41.645Z,53.60
2022-12-20T08:33:11.558Z,53.80
2022-12-20T08:35:41.539Z,53.80
2022-12-20T08:38:11.367Z,53.80
2022-12-20T08:40:41.349Z,53.80
2022-12-20T08:43:11.324Z,53.90
2022-12-20T08:45:41.214Z,53.40
2022-12-20T08:48:11.266Z,53.60
2022-12-20T08:50:41.413Z,53.20
2022-12-20T08:53:11.323Z,53.50
2022-12-20T08:55:42.247Z,53.20
2022-12-20T08:58:12.304Z,53.40
2022-12-20T09:00:42.306Z,53.40
2022-12-20T09:03:13.414Z,53.20
2022-12-20T09:05:50.497Z,53.30
2022-12-20T09:08:20.438Z,53.40
2022-12-20T09:10:50.438Z,53.50
2022-12-20T09:13:20.550Z,53.60
2022-12-20T09:15:50.619Z,53.40
2022-12-20T09:18:20.556Z,53.20
2022-12-20T09:20:50.589Z,53.50
2022-12-20T09:23:20.478Z,53.70
2022-12-20T09:25:53.704Z,53.70
2022-12-20T09:28:25.881Z,53.80
2022-12-20T09:30:59.559Z,53.80
2022-12-20T09:33:30.315Z,53.50
2022-12-20T09:36:00.509Z,53.40
2022-12-20T09:38:32.845Z,53.40
2022-12-20T09:41:06.180Z,53.30
2022-12-20T09:43:36.796Z,53.70
2022-12-20T09:46:06.662Z,53.30
2022-12-20T09:48:42.141Z,53.50
2022-12-20T09:51:45.198Z,53.60
2022-12-20T09:54:41.976Z,53.40
2022-12-20T09:57:50.789Z,53.60
2022-12-20T10:00:22.296Z,53.60
2022-12-20T10:03:08.567Z,53.90
2022-12-20T10:05:55.377Z,53.90
2022-12-20T10:08:53.667Z,54.10
2022-12-20T10:11:56.229Z,54.10
2022-12-20T10:14:56.778Z,54.20
2022-12-20T10:18:05.700Z,54.30
2022-12-20T10:20:59.888Z,54.40
2022-12-20T10:23:41.921Z,54.50
2022-12-20T10:26:14.098Z,54.70
2022-12-20T10:28:46.865Z,54.80
2022-12-20T10:31:21.364Z,54.90
2022-12-20T10:33:51.099Z,55.00
2022-12-20T10:36:31.347Z,55.10
2022-12-20T10:39:07.470Z,55.30
2022-12-20T10:41:51.642Z,55.50
2022-12-20T10:44:30.472Z,55.70
2022-12-20T10:47:03.615Z,55.90
2022-12-20T10:49:42.658Z,56.20
2022-12-20T10:52:16.234Z,56.40
2022-12-20T10:54:48.071Z,56.70
2022-12-20T10:57:28.897Z,57.00
2022-12-20T11:00:02.059Z,57.30
2022-12-20T11:02:42.616Z,57.50
2022-12-20T11:05:25.739Z,57.70
2022-12-20T11:08:34.602Z,58.00
2022-12-20T11:10:51.412Z,58.30
2022-12-20T11:13:27.524Z,58.90
2022-12-20T11:16:03.067Z,59.10
2022-12-20T11:19:05.539Z,59.30
2022-12-20T11:22:06.614Z,59.80
2022-12-20T11:24:56.991Z,59.90
2022-12-20T11:27:51.663Z,60.10
2022-12-20T11:30:29.795Z,60.40
2022-12-20T11:33:11.713Z,60.70
2022-12-20T11:36:13.374Z,61.20
2022-12-20T11:39:22.200Z,61.10
2022-12-20T11:42:17.788Z,61.30
2022-12-20T11:45:26.643Z,61.80
2022-12-20T11:48:35.345Z,62.20
2022-12-20T11:51:26.921Z,62.80
2022-12-20T11:54:35.827Z,63.00
2022-12-20T11:57:28.794Z,63.70
2022-12-20T12:00:02.932Z,64.10
2022-12-20T12:02:44.484Z,64.20
2022-12-20T12:05:45.653Z,64.80
2022-12-20T12:08:42.854Z,65.10
2022-12-20T12:12:04.487Z,65.30
2022-12-20T12:14:38.592Z,65.40
2022-12-20T12:17:35.392Z,66.10
2022-12-20T12:20:24.313Z,66.70
2022-12-20T12:23:00.448Z,67.20
2022-12-20T12:25:30.208Z,67.70
2022-12-20T12:28:00.324Z,67.90
2022-12-20T12:30:38.623Z,68.30
2022-12-20T12:33:24.359Z,68.40
2022-12-20T12:36:25.724Z,68.50
2022-12-20T12:39:24.197Z,68.80
2022-12-20T12:42:14.637Z,69.40
2022-12-20T12:44:59.779Z,69.40
2022-12-20T12:47:41.561Z,69.90
2022-12-20T12:50:26.367Z,70.40
2022-12-20T12:52:59.029Z,70.40
2022-12-20T12:55:50.816Z,70.60
2022-12-20T12:58:35.664Z,71.00
2022-12-20T13:01:13.454Z,71.10
2022-12-20T13:04:07.338Z,71.00
2022-12-20T13:07:05.274Z,71.20
2022-12-20T13:09:39.279Z,71.50
2022-12-20T13:12:47.997Z,72.90
2022-12-20T13:15:53.221Z,72.20
2022-12-20T13:18:26.675Z,72.40
2022-12-20T13:21:20.469Z,72.50
2022-12-20T13:23:50.152Z,72.40
2022-12-20T13:26:52.388Z,72.20
2022-12-20T13:29:34.881Z,72.60
2022-12-20T13:32:25.229Z,72.60
2022-12-20T13:34:59.874Z,72.60
2022-12-20T13:37:54.725Z,72.80
2022-12-20T13:40:45.744Z,72.70
2022-12-20T13:43:38.027Z,73.00
2022-12-20T13:46:38.306Z,73.30
2022-12-20T13:49:12.412Z,73.40
2022-12-20T13:51:42.020Z,73.20
2022-12-20T13:54:26.694Z,73.40
2022-12-20T13:56:56.959Z,73.60
2022-12-20T13:59:30.755Z,73.70
2022-12-20T14:02:03.190Z,73.60
2022-12-20T14:04:59.333Z,73.70
2022-12-20T14:07:31.715Z,74.20
2022-12-20T14:10:04.262Z,74.10
2022-12-20T14:12:36.955Z,74.40
2022-12-20T14:15:29.244Z,74.30
2022-12-20T14:17:59.557Z,74.50
2022-12-20T14:20:33.883Z,74.60
2022-12-20T14:23:25.271Z,74.60
2022-12-20T14:26:03.751Z,74.80
2022-12-20T14:28:54.320Z,74.90
2022-12-20T14:31:37.148Z,74.90
2022-12-20T14:34:22.221Z,74.80
2022-12-20T14:37:15.103Z,74.90
2022-12-20T14:39:59.925Z,74.90
2022-12-20T14:42:36.398Z,74.90
2022-12-20T14:45:18.906Z,74.90
2022-12-20T14:48:08.303Z,75.00
2022-12-20T14:50:42.421Z,75.10
2022-12-20T14:53:26.880Z,75.30
2022-12-20T14:55:56.807Z,75.30
2022-12-20T14:58:35.734Z,75.40
2022-12-20T15:01:26.532Z,75.30
2022-12-20T15:03:59.082Z,75.40
2022-12-20T15:06:49.927Z,75.50
2022-12-20T15:09:19.840Z,75.50
2022-12-20T15:11:50.487Z,75.60
2022-12-20T15:14:41.072Z,75.70
2022-12-20T15:17:16.315Z,75.80
2022-12-20T15:19:46.349Z,75.80
2022-12-20T15:22:22.307Z,75.90
2022-12-20T15:24:52.051Z,75.90
2022-12-20T15:27:21.864Z,75.90
2022-12-20T15:29:51.612Z,76.10
2022-12-20T15:32:33.841Z,76.00
2022-12-20T15:35:04.960Z,76.30
2022-12-20T15:37:34.529Z,76.30
2022-12-20T15:40:04.130Z,76.30
2022-12-20T15:42:33.898Z,76.60
2022-12-20T15:45:04.338Z,76.70
2022-12-20T15:47:33.934Z,76.90
2022-12-20T15:50:03.582Z,76.80
2022-12-20T15:52:34.516Z,76.90
2022-12-20T15:55:04.111Z,77.10
2022-12-20T15:57:33.792Z,77.10
2022-12-20T16:00:04.181Z,77.10
2022-12-20T16:02:35.271Z,77.40
2022-12-20T16:05:06.000Z,77.40
2022-12-20T16:07:35.556Z,77.60
2022-12-20T16:10:05.300Z,77.90
2022-12-20T16:12:37.843Z,77.80
2022-12-20T16:15:09.827Z,77.80
2022-12-20T16:17:39.467Z,78.10
2022-12-20T16:20:10.395Z,78.20
2022-12-20T16:22:40.159Z,78.40
2022-12-20T16:25:20.084Z,78.40
2022-12-20T16:27:49.913Z,78.50
2022-12-20T16:30:19.606Z,78.70
2022-12-20T16:32:49.304Z,78.50
2022-12-20T16:35:39.323Z,78.80
2022-12-20T16:38:09.162Z,78.50
2022-12-20T16:40:38.810Z,78.90
2022-12-20T16:43:15.147Z,78.90
2022-12-20T16:45:45.124Z,78.90
2022-12-20T16:48:14.858Z,79.00
2022-12-20T16:50:45.209Z,79.20
2022-12-20T16:53:17.204Z,79.30
2022-12-20T16:55:47.243Z,79.50
2022-12-20T16:58:16.804Z,79.20
2022-12-20T17:00:46.925Z,79.30
2022-12-20T17:03:16.803Z,79.50
2022-12-20T17:05:47.327Z,79.30
2022-12-20T17:11:02.448Z,79.60
2022-12-20T17:13:32.094Z,79.50
2022-12-20T17:16:01.726Z,79.90
2022-12-20T17:18:31.523Z,80.00
2022-12-20T17:21:02.795Z,80.30
2022-12-20T17:23:45.278Z,81.30
2022-12-20T17:26:21.847Z,80.80
2022-12-20T17:28:57.522Z,81.10
2022-12-20T17:31:33.321Z,81.10
2022-12-20T17:34:05.761Z,81.80
2022-12-20T17:36:37.992Z,81.20
2022-12-20T17:39:07.963Z,81.20
2022-12-20T17:41:38.554Z,81.30
2022-12-20T17:44:09.253Z,81.50
2022-12-20T17:46:38.912Z,81.60
2022-12-20T17:49:08.592Z,81.90
2022-12-20T17:51:38.250Z,81.90
2022-12-20T17:54:08.253Z,81.90
2022-12-20T17:56:38.888Z,82.20
2022-12-20T17:59:08.652Z,82.10
2022-12-20T18:01:38.560Z,82.00
2022-12-20T18:04:10.607Z,82.10
2022-12-20T18:06:41.935Z,81.90
2022-12-20T18:09:20.287Z,81.80
2022-12-20T18:11:49.984Z,81.70
2022-12-20T18:14:19.775Z,82.40
2022-12-20T18:16:49.437Z,82.00
2022-12-20T18:19:22.237Z,81.90
2022-12-20T18:21:51.904Z,81.80
2022-12-20T18:24:23.174Z,81.90
2022-12-20T18:26:52.788Z,81.80
2022-12-20T18:29:22.334Z,81.90
2022-12-20T18:31:51.987Z,81.80
2022-12-20T18:34:22.199Z,81.90
2022-12-20T18:36:52.152Z,81.90
2022-12-20T18:39:21.796Z,82.00
2022-12-20T18:41:51.469Z,81.80
2022-12-20T18:44:21.083Z,82.10
2022-12-20T18:46:50.594Z,81.80
2022-12-20T18:49:20.718Z,82.00
2022-12-20T18:51:50.490Z,82.00
2022-12-20T18:54:20.171Z,81.90
2022-12-20T18:56:52.507Z,82.00
2022-12-20T18:59:22.936Z,82.00
2022-12-20T19:01:54.002Z,82.10
2022-12-20T19:04:25.190Z,82.30
2022-12-20T19:06:55.306Z,82.20
2022-12-20T19:09:25.203Z,82.30
2022-12-20T19:11:57.362Z,82.30
2022-12-20T19:14:27.907Z,82.10
2022-12-20T19:16:57.607Z,82.20
2022-12-20T19:19:28.149Z,82.20
2022-12-20T19:21:57.925Z,82.10
2022-12-20T19:24:27.534Z,82.20
2022-12-20T19:26:57.304Z,82.30
2022-12-20T19:29:27.015Z,82.50
2022-12-20T19:31:57.084Z,82.70
2022-12-20T19:34:26.694Z,82.90
2022-12-20T19:36:56.908Z,82.80
2022-12-20T19:39:26.561Z,82.60
2022-12-20T19:42:22.255Z,82.80
2022-12-20T19:44:45.906Z,82.80
2022-12-20T19:47:15.504Z,82.80
2022-12-20T19:49:45.095Z,82.90
2022-12-20T19:52:14.844Z,83.00
2022-12-20T19:54:45.179Z,83.10
2022-12-20T19:57:15.067Z,83.20
2022-12-20T19:59:44.723Z,83.30
2022-12-20T20:02:17.757Z,83.30
2022-12-20T20:04:47.817Z,83.30
2022-12-20T20:07:17.407Z,83.50
2022-12-20T20:09:47.023Z,83.50
2022-12-20T20:12:16.615Z,83.70
2022-12-20T20:14:46.180Z,83.90
2022-12-20T20:17:15.705Z,83.70
2022-12-20T20:19:45.704Z,83.70
2022-12-20T20:22:22.527Z,83.80
2022-12-20T20:24:52.703Z,83.90
2022-12-20T20:27:22.366Z,84.00
2022-12-20T20:29:52.883Z,84.10
2022-12-20T20:32:22.396Z,84.00
2022-12-20T20:34:52.278Z,83.90
2022-12-20T20:37:22.311Z,84.00
2022-12-20T20:39:51.978Z,84.00
2022-12-20T20:42:23.433Z,84.10
2022-12-20T20:44:53.433Z,84.00
2022-12-20T20:47:23.342Z,84.00
2022-12-20T20:49:54.606Z,84.00
2022-12-20T20:52:24.323Z,84.00
2022-12-20T20:54:53.875Z,84.10
2022-12-20T20:57:23.600Z,84.10
2022-12-20T20:59:53.246Z,84.30
2022-12-20T21:02:25.274Z,84.30
2022-12-20T21:05:35.618Z,84.40
2022-12-20T21:07:44.874Z,84.30
2022-12-20T21:10:15.102Z,84.40
2022-12-20T21:12:45.249Z,84.40
2022-12-20T21:15:23.931Z,84.10
2022-12-20T21:17:54.114Z,84.00
2022-12-20T21:20:26.194Z,84.40
2022-12-20T21:22:56.741Z,84.30
2022-12-20T21:25:26.393Z,84.50
2022-12-20T21:27:56.135Z,84.40
2022-12-20T21:30:26.248Z,84.50
2022-12-20T21:32:55.875Z,84.60
2022-12-20T21:35:25.753Z,84.60
2022-12-20T21:37:55.747Z,84.60
2022-12-20T21:40:25.423Z,84.60
2022-12-20T21:42:54.995Z,84.70
2022-12-20T21:45:24.627Z,84.90
2022-12-20T21:47:58.172Z,85.00
2022-12-20T21:50:32.380Z,85.00
2022-12-20T21:53:01.917Z,84.90
2022-12-20T21:55:31.464Z,85.10
2022-12-20T21:58:00.958Z,85.00
2022-12-20T22:00:30.609Z,85.10
2022-12-20T22:03:00.346Z,85.10
2022-12-20T22:05:29.959Z,85.00
2022-12-20T22:07:59.561Z,85.10
2022-12-20T22:10:29.490Z,85.00
2022-12-20T22:12:59.079Z,85.10
2022-12-20T22:15:29.366Z,85.20
2022-12-20T22:17:58.906Z,85.10
2022-12-20T22:20:28.573Z,85.20
2022-12-20T22:22:58.264Z,85.30
2022-12-20T22:25:28.231Z,85.40
2022-12-20T22:27:58.277Z,85.40
2022-12-20T22:30:27.956Z,85.40
2022-12-20T22:32:57.603Z,85.50
2022-12-20T22:35:27.455Z,85.50
2022-12-20T22:37:57.615Z,85.40
2022-12-20T22:40:27.220Z,85.40
2022-12-20T22:42:56.831Z,85.50
2022-12-20T22:45:26.456Z,85.50
2022-12-20T22:47:56.043Z,85.40
2022-12-20T22:50:25.618Z,85.50
2022-12-20T22:52:55.293Z,85.40
2022-12-20T22:55:24.833Z,85.50
2022-12-20T22:57:54.351Z,85.50
2022-12-20T23:00:24.218Z,85.50
2022-12-20T23:02:53.943Z,85.70
2022-12-20T23:05:23.727Z,85.60
2022-12-20T23:07:53.375Z,85.90
2022-12-20T23:10:42.579Z,85.70
2022-12-20T23:13:34.227Z,85.70
2022-12-20T23:16:03.838Z,85.60
2022-12-20T23:18:33.510Z,85.70
2022-12-20T23:21:22.783Z,85.70
2022-12-20T23:23:55.856Z,85.70
2022-12-20T23:26:26.086Z,85.90
2022-12-20T23:28:55.664Z,86.00
2022-12-20T23:31:25.323Z,85.60
2022-12-20T23:33:55.131Z,85.80
2022-12-20T23:36:25.092Z,85.90
2022-12-20T23:38:55.231Z,85.80
2022-12-20T23:41:25.308Z,86.00
2022-12-20T23:43:54.910Z,86.00
2022-12-20T23:46:25.122Z,86.00
2022-12-20T23:48:55.202Z,86.00
2022-12-20T23:51:25.342Z,86.10
2022-12-20T23:53:55.001Z,86.10
2022-12-20T23:56:26.425Z,86.20
2022-12-20T23:58:57.314Z,86.30
